Time;durP1;ratioP1;P1;durP2;ratioP2;P2;SDS_P1;SDS_P2;PMS_P1;PMS_P2;Temp;Humidity;BMP_temperature;BMP_pressure;BME280_temperature;BME280_humidity;BME280_pressure;Samples;Min_cycle;Max_cycle;Signal;HPM_P1;HPM_P2
2021/04/25 00:01:55;;;;;;;126.22;32.70;;;;;;;6.52;50.62;98896.09;5027231;28;20032;-86
2021/04/25 00:04:21;;;;;;;101.28;29.15;;;;;;;6.47;50.81;98901.47;5031409;28;20029;-87
2021/04/25 00:06:46;;;;;;;101.82;27.83;;;;;;;6.41;50.53;98892.41;5024028;28;20036;-86
2021/04/25 00:09:12;;;;;;;92.07;25.80;;;;;;;6.36;50.49;98900.53;5030591;28;20034;-85
2021/04/25 00:11:38;;;;;;;106.95;28.15;;;;;;;6.32;51.17;98893.97;5025396;28;20036;-88
2021/04/25 00:14:04;;;;;;;129.80;30.88;;;;;;;6.29;51.09;98898.03;5034122;28;20037;-87
2021/04/25 00:16:30;;;;;;;133.93;32.72;;;;;;;6.28;50.74;98890.13;5028828;28;20397;-86
2021/04/25 00:18:59;;;;;;;137.98;32.00;;;;;;;6.28;51.17;98888.22;5032115;28;20469;-83
2021/04/25 00:21:26;;;;;;;155.30;35.25;;;;;;;6.27;50.81;98881.13;5033585;28;20025;-86
2021/04/25 00:23:53;;;;;;;115.32;28.17;;;;;;;6.26;50.77;98887.66;5033216;28;20713;-87
2021/04/25 00:26:18;;;;;;;88.72;23.33;;;;;;;6.25;50.85;98888.72;5033106;28;20032;-86
2021/04/25 00:28:44;;;;;;;74.82;22.50;;;;;;;6.24;51.00;98881.63;5029245;28;20260;-86
2021/04/25 00:31:09;;;;;;;65.00;18.42;;;;;;;6.20;51.35;98892.22;5018933;28;20037;-86
2021/04/25 00:33:36;;;;;;;62.97;18.80;;;;;;;6.17;51.52;98884.56;5028551;28;20065;-86
2021/04/25 00:36:01;;;;;;;34.00;13.57;;;;;;;6.15;51.84;98881.28;5035200;28;20485;-85
2021/04/25 00:38:26;;;;;;;34.78;13.90;;;;;;;6.13;51.22;98879.88;5029198;28;20118;-88
2021/04/25 00:40:52;;;;;;;30.35;12.30;;;;;;;6.12;51.29;98870.91;5034629;28;20088;-88
2021/04/25 00:43:17;;;;;;;30.63;12.65;;;;;;;6.12;51.07;98870.91;5040802;28;20048;-88
2021/04/25 00:45:43;;;;;;;30.88;12.07;;;;;;;6.09;51.05;98876.84;5036735;28;20120;-88
2021/04/25 00:48:08;;;;;;;25.38;12.85;;;;;;;6.07;51.22;98874.41;5030961;28;20064;-88
2021/04/25 00:50:33;;;;;;;27.92;12.90;;;;;;;6.03;51.44;98866.97;5025926;28;20048;-88
2021/04/25 00:52:59;;;;;;;26.13;13.90;;;;;;;5.96;51.49;98864.44;5019977;28;20033;-88
2021/04/25 00:55:27;;;;;;;28.35;13.57;;;;;;;5.95;52.13;98870.97;5028810;28;20143;-88
2021/04/25 00:57:53;;;;;;;27.55;13.30;;;;;;;5.92;51.60;98864.13;5033766;28;20094;-86
2021/04/25 01:00:20;;;;;;;27.88;12.93;;;;;;;5.91;51.60;98861.66;5029335;28;20036;-87
2021/04/25 01:02:45;;;;;;;33.17;15.38;;;;;;;5.88;52.10;98860.28;5025309;28;20037;-87
2021/04/25 01:05:13;;;;;;;27.30;14.40;;;;;;;5.84;51.99;98867.31;5034567;28;20037;-87
2021/04/25 01:07:38;;;;;;;29.45;14.32;;;;;;;5.78;51.67;98862.88;5033569;28;20430;-87
2021/04/25 01:10:05;;;;;;;26.92;12.73;;;;;;;5.75;51.95;98863.38;5030880;28;20029;-87
2021/04/25 01:12:31;;;;;;;25.35;11.30;;;;;;;5.68;52.12;98858.16;5024402;28;20025;-88
2021/04/25 01:14:56;;;;;;;24.45;11.80;;;;;;;5.66;51.73;98866.56;5025679;28;20449;-87
2021/04/25 01:17:22;;;;;;;27.88;11.50;;;;;;;5.62;51.69;98865.41;5023209;28;20025;-88
2021/04/25 01:19:47;;;;;;;25.20;13.65;;;;;;;5.61;52.21;98866.50;5030800;28;20436;-88
2021/04/25 01:22:13;;;;;;;23.75;11.30;;;;;;;5.63;52.46;98872.50;5029918;28;20041;-88
2021/04/25 01:24:38;;;;;;;26.08;12.77;;;;;;;5.60;52.22;98872.19;5042976;28;20374;-88
2021/04/25 01:27:04;;;;;;;22.00;11.10;;;;;;;5.56;52.75;98862.91;5038582;28;20013;-88
2021/04/25 01:29:30;;;;;;;23.17;11.25;;;;;;;5.49;52.04;98863.09;5032053;28;20110;-87
2021/04/25 01:31:55;;;;;;;23.38;11.20;;;;;;;5.44;52.74;98869.28;5032379;28;20017;-88
2021/04/25 01:34:21;;;;;;;21.55;10.73;;;;;;;5.40;52.43;98864.59;5029383;28;20048;-86
2021/04/25 01:36:46;;;;;;;24.10;12.30;;;;;;;5.40;52.90;98867.31;5036317;28;20029;-87
2021/04/25 01:39:12;;;;;;;21.58;11.48;;;;;;;5.39;52.90;98869.19;5035412;28;20459;-87
2021/04/25 01:41:37;;;;;;;19.13;10.05;;;;;;;5.36;52.74;98866.97;5042992;28;20035;-87
2021/04/25 01:44:03;;;;;;;21.13;9.90;;;;;;;5.33;52.87;98862.88;5036918;28;20535;-88
2021/04/25 01:46:29;;;;;;;18.15;9.90;;;;;;;5.28;52.89;98860.09;5036724;28;20524;-87
2021/04/25 01:48:54;;;;;;;26.50;14.13;;;;;;;5.25;52.71;98860.59;5035790;28;20408;-89
2021/04/25 01:51:20;;;;;;;25.98;12.48;;;;;;;5.19;52.57;98862.44;5034963;28;20469;-89
2021/04/25 01:53:45;;;;;;;22.17;11.55;;;;;;;5.15;52.74;98855.00;5027715;28;20032;-89
2021/04/25 01:56:11;;;;;;;21.95;10.77;;;;;;;5.13;53.23;98857.16;5033714;28;20204;-88
2021/04/25 01:58:37;;;;;;;21.55;10.93;;;;;;;5.14;53.49;98859.63;5030031;28;21177;-87
2021/04/25 02:01:03;;;;;;;21.60;10.70;;;;;;;5.16;53.93;98854.78;5029590;28;20523;-86
2021/04/25 02:03:29;;;;;;;22.15;10.73;;;;;;;5.14;53.91;98858.78;5028499;28;20041;-88
2021/04/25 02:05:54;;;;;;;27.50;11.75;;;;;;;5.11;53.24;98860.13;5030455;28;20029;-86
2021/04/25 02:08:19;;;;;;;23.35;10.90;;;;;;;5.15;53.59;98861.28;5031570;28;20531;-87
2021/04/25 02:10:47;;;;;;;25.10;11.57;;;;;;;5.11;54.09;98862.00;5031181;28;20112;-90
2021/04/25 02:13:12;;;;;;;22.27;10.25;;;;;;;5.00;53.52;98856.47;5029850;28;20032;-88
2021/04/25 02:15:39;;;;;;;21.63;10.05;;;;;;;4.98;54.33;98858.59;5025889;28;20045;-87
2021/04/25 02:18:05;;;;;;;23.65;10.27;;;;;;;4.92;53.88;98851.44;5021220;28;20026;-83
2021/04/25 02:20:30;;;;;;;26.05;11.20;;;;;;;4.91;53.68;98852.50;5027673;28;20029;-87
2021/04/25 02:22:56;;;;;;;24.17;10.65;;;;;;;4.88;54.27;98848.41;5031350;28;20432;-86
2021/04/25 02:25:22;;;;;;;28.13;11.90;;;;;;;4.88;54.13;98853.84;5029665;28;20021;-86
2021/04/25 02:27:48;;;;;;;27.17;12.60;;;;;;;4.88;54.08;98856.56;5063750;28;20529;-86
2021/04/25 02:30:17;;;;;;;28.52;12.40;;;;;;;4.86;54.14;98852.44;5029369;28;20018;-86
2021/04/25 02:32:42;;;;;;;27.80;13.02;;;;;;;4.75;53.93;98852.25;5032028;28;20022;-87
2021/04/25 02:35:10;;;;;;;42.22;16.73;;;;;;;4.67;54.50;98850.00;5030278;28;20646;-87
2021/04/25 02:37:36;;;;;;;23.02;11.48;;;;;;;4.65;54.98;98843.13;5028920;28;20075;-87
2021/04/25 02:40:04;;;;;;;26.10;11.00;;;;;;;4.56;55.15;98840.84;5039935;28;20038;-86
2021/04/25 02:42:29;;;;;;;22.05;10.45;;;;;;;4.49;54.75;98847.50;5045087;28;20037;-86
2021/04/25 02:44:54;;;;;;;23.55;11.45;;;;;;;4.44;54.62;98842.81;5048138;28;20512;-83
2021/04/25 02:47:20;;;;;;;26.55;11.98;;;;;;;4.38;55.18;98847.34;5039772;28;20040;-84
2021/04/25 02:49:45;;;;;;;26.48;11.73;;;;;;;4.34;55.33;98842.66;5056896;28;20053;-85
2021/04/25 02:52:11;;;;;;;24.27;11.38;;;;;;;4.30;55.73;98837.72;5064323;28;20025;-85
2021/04/25 02:54:36;;;;;;;29.25;11.75;;;;;;;4.32;55.37;98837.44;5062576;28;20037;-85
2021/04/25 02:57:02;;;;;;;26.33;11.75;;;;;;;4.35;55.88;98842.38;5063273;28;20025;-85
2021/04/25 02:59:27;;;;;;;24.25;11.95;;;;;;;4.35;55.75;98839.66;5062761;28;20108;-85
2021/04/25 03:01:53;;;;;;;25.45;12.07;;;;;;;4.31;56.00;98835.81;5066584;28;20063;-85
2021/04/25 03:04:18;;;;;;;25.98;12.27;;;;;;;4.31;55.83;98841.22;5054423;28;20032;-84
2021/04/25 03:06:43;;;;;;;28.35;12.30;;;;;;;4.30;56.06;98837.72;5048199;28;20029;-85
2021/04/25 03:09:09;;;;;;;30.05;12.55;;;;;;;4.29;56.30;98835.22;5052811;28;20056;-85
2021/04/25 03:11:34;;;;;;;29.48;12.95;;;;;;;4.35;56.28;98839.66;5055028;28;20078;-85
2021/04/25 03:14:00;;;;;;;25.35;11.63;;;;;;;4.32;55.56;98842.88;5051132;28;20025;-84
2021/04/25 03:16:25;;;;;;;31.13;13.15;;;;;;;4.27;56.28;98835.47;5054885;28;20504;-85
2021/04/25 03:18:50;;;;;;;30.95;14.70;;;;;;;4.24;56.02;98830.53;5053651;28;20028;-85
2021/04/25 03:21:16;;;;;;;32.50;14.57;;;;;;;4.24;56.49;98837.88;5053509;28;20068;-83
2021/04/25 03:23:41;;;;;;;28.95;14.13;;;;;;;4.23;56.95;98830.81;5060436;28;20206;-85
2021/04/25 03:26:07;;;;;;;28.23;13.18;;;;;;;4.22;56.50;98834.59;5062995;28;20025;-85
2021/04/25 03:28:33;;;;;;;29.15;14.02;;;;;;;4.23;56.67;98823.47;5051900;28;20035;-85
2021/04/25 03:30:58;;;;;;;27.20;13.18;;;;;;;4.24;56.59;98829.72;5050752;28;20033;-84
2021/04/25 03:33:24;;;;;;;33.42;14.00;;;;;;;4.28;57.12;98836.31;5051372;28;20035;-86
2021/04/25 03:35:49;;;;;;;27.08;12.43;;;;;;;4.27;57.19;98823.81;5053576;28;20033;-84
2021/04/25 03:38:16;;;;;;;28.30;12.82;;;;;;;4.28;57.31;98833.59;5046375;28;20469;-85
2021/04/25 03:40:41;;;;;;;24.52;12.70;;;;;;;4.29;57.44;98827.06;5050277;28;20033;-84
2021/04/25 03:43:07;;;;;;;23.35;11.30;;;;;;;4.37;57.35;98829.38;5053108;28;20036;-84
2021/04/25 03:45:32;;;;;;;30.63;13.00;;;;;;;4.50;57.01;98825.53;5053282;28;20033;-84
2021/04/25 03:47:57;;;;;;;29.17;13.02;;;;;;;4.60;56.94;98828.41;5051516;28;20025;-84
2021/04/25 03:50:25;;;;;;;38.80;14.77;;;;;;;4.70;57.06;98829.63;5050978;28;20028;-84
2021/04/25 03:52:50;;;;;;;48.65;17.10;;;;;;;4.73;57.13;98823.72;5050643;28;20028;-84
2021/04/25 03:55:18;;;;;;;43.72;16.77;;;;;;;4.73;57.03;98821.81;5051575;28;20439;-84
2021/04/25 03:57:45;;;;;;;28.85;13.13;;;;;;;4.73;56.76;98826.44;5052477;28;20082;-85
2021/04/25 04:00:13;;;;;;;28.50;12.70;;;;;;;4.74;56.71;98818.00;5049880;28;20066;-84
2021/04/25 04:02:38;;;;;;;37.38;13.30;;;;;;;4.76;56.95;98815.06;5047345;28;20032;-84
2021/04/25 04:05:05;;;;;;;51.17;18.90;;;;;;;4.80;56.93;98827.09;5049680;28;20025;-84
2021/04/25 04:07:31;;;;;;;53.30;19.70;;;;;;;4.80;57.21;98810.78;5051680;28;20071;-84
2021/04/25 04:09:56;;;;;;;54.47;19.05;;;;;;;4.79;57.19;98824.59;5049321;28;20500;-84
2021/04/25 04:12:21;;;;;;;44.90;18.85;;;;;;;4.80;57.40;98820.81;5051454;28;20042;-84
2021/04/25 04:14:47;;;;;;;32.42;14.63;;;;;;;4.81;57.67;98825.16;5049172;28;20465;-83
2021/04/25 04:17:13;;;;;;;26.45;12.43;;;;;;;4.84;56.92;98824.69;5051487;28;20104;-83
2021/04/25 04:19:39;;;;;;;26.75;12.68;;;;;;;4.85;57.75;98827.16;5050596;28;20516;-84
2021/04/25 04:22:04;;;;;;;33.80;15.00;;;;;;;4.87;57.74;98830.44;5050261;28;20033;-83
2021/04/25 04:24:29;;;;;;;38.47;14.98;;;;;;;4.94;57.86;98818.56;5050435;28;20045;-84
2021/04/25 04:26:55;;;;;;;35.47;15.10;;;;;;;5.01;57.77;98824.66;5051312;28;20105;-84
2021/04/25 04:29:20;;;;;;;37.35;15.45;;;;;;;5.06;57.45;98822.00;5050459;28;20052;-84
2021/04/25 04:31:46;;;;;;;33.85;14.82;;;;;;;5.15;58.02;98814.22;5050618;28;20031;-84
2021/04/25 04:34:14;;;;;;;70.43;32.15;;;;;;;5.18;57.12;98820.00;5049741;28;20067;-84
2021/04/25 04:36:39;;;;;;;71.25;29.17;;;;;;;5.21;57.24;98822.22;5050000;28;20044;-84
2021/04/25 04:39:05;;;;;;;78.55;27.88;;;;;;;5.23;57.40;98821.94;5048721;28;20059;-83
2021/04/25 04:41:30;;;;;;;60.95;22.88;;;;;;;5.22;57.37;98826.56;5053026;28;20087;-84
2021/04/25 04:43:58;;;;;;;74.97;26.67;;;;;;;5.29;58.05;98820.94;5048542;28;20013;-83
2021/04/25 04:46:23;;;;;;;55.15;20.92;;;;;;;5.37;57.78;98830.56;5050238;28;20067;-84
2021/04/25 04:48:49;;;;;;;42.65;17.05;;;;;;;5.43;57.85;98828.72;5050622;28;20060;-85
2021/04/25 04:51:14;;;;;;;28.50;12.65;;;;;;;5.52;57.47;98827.19;5052989;28;20090;-85
2021/04/25 04:53:39;;;;;;;26.65;13.48;;;;;;;5.55;57.42;98826.69;5051217;28;20025;-85
2021/04/25 04:56:05;;;;;;;26.30;12.07;;;;;;;5.54;57.47;98818.78;5050238;28;20017;-85
2021/04/25 04:58:30;;;;;;;26.80;12.90;;;;;;;5.56;57.38;98825.59;5049649;28;20040;-84
2021/04/25 05:00:56;;;;;;;25.80;12.75;;;;;;;5.56;57.12;98825.59;5050256;28;20112;-85
2021/04/25 05:03:21;;;;;;;22.75;11.10;;;;;;;5.60;57.41;98832.19;5047427;28;20094;-83
2021/04/25 05:05:46;;;;;;;22.73;10.70;;;;;;;5.68;57.25;98828.22;5056339;28;20024;-84
2021/04/25 05:08:12;;;;;;;28.92;13.10;;;;;;;5.74;57.43;98831.81;5054014;28;20473;-84
2021/04/25 05:10:37;;;;;;;27.92;13.05;;;;;;;5.82;57.63;98831.34;5052464;28;20032;-84
2021/04/25 05:13:03;;;;;;;26.13;12.30;;;;;;;5.91;57.10;98829.00;5053941;28;20035;-85
2021/04/25 05:15:28;;;;;;;27.00;12.48;;;;;;;5.91;57.22;98823.53;5053799;28;20131;-84
2021/04/25 05:17:53;;;;;;;27.98;12.40;;;;;;;6.02;57.60;98824.50;5053922;28;20043;-84
2021/04/25 05:20:19;;;;;;;24.55;11.45;;;;;;;6.13;57.60;98823.53;5053713;28;20033;-85
2021/04/25 05:22:44;;;;;;;25.42;12.00;;;;;;;6.20;56.68;98817.84;5053018;28;20033;-85
2021/04/25 05:25:10;;;;;;;24.65;12.85;;;;;;;6.23;56.93;98818.19;5054948;28;20060;-85
2021/04/25 05:27:35;;;;;;;34.33;14.02;;;;;;;6.27;57.30;98831.28;5053905;28;20021;-83
2021/04/25 05:30:01;;;;;;;34.60;16.55;;;;;;;6.31;56.69;98827.78;5054494;28;20029;-85
2021/04/25 05:32:26;;;;;;;28.27;13.48;;;;;;;6.32;56.55;98820.41;5053477;28;20108;-85
2021/04/25 05:34:51;;;;;;;23.55;12.32;;;;;;;6.40;56.94;98817.22;5055109;28;20101;-85
2021/04/25 05:37:17;;;;;;;23.75;12.13;;;;;;;6.46;56.34;98816.19;5053504;28;20025;-84
2021/04/25 05:39:42;;;;;;;34.20;16.38;;;;;;;6.55;56.53;98817.34;5053390;28;20036;-84
2021/04/25 05:42:08;;;;;;;39.03;17.80;;;;;;;6.61;56.74;98820.91;5053621;28;20024;-84
2021/04/25 05:44:34;;;;;;;26.92;13.20;;;;;;;6.64;56.66;98822.31;5054263;28;20032;-85
2021/04/25 05:46:59;;;;;;;26.50;13.65;;;;;;;6.68;56.30;98824.25;5053339;28;20427;-85
2021/04/25 05:49:25;;;;;;;27.15;13.30;;;;;;;6.72;55.86;98823.72;5054441;28;20025;-84
2021/04/25 05:51:50;;;;;;;32.25;15.27;;;;;;;6.70;55.87;98815.81;5053461;28;20400;-85
2021/04/25 05:54:16;;;;;;;37.35;14.57;;;;;;;6.68;56.21;98818.78;5053207;28;20464;-84
2021/04/25 05:56:41;;;;;;;25.38;12.68;;;;;;;6.73;56.08;98828.09;5056857;28;20560;-84
2021/04/25 05:59:07;;;;;;;26.48;12.35;;;;;;;6.82;55.88;98826.53;5053120;28;20033;-85
2021/04/25 06:01:32;;;;;;;27.27;12.05;;;;;;;6.90;55.53;98822.47;5051346;28;20021;-84
2021/04/25 06:03:57;;;;;;;26.83;12.85;;;;;;;6.94;55.30;98815.41;5053531;28;20100;-85
2021/04/25 06:06:24;;;;;;;43.05;18.90;;;;;;;6.99;55.66;98816.25;5051953;28;20035;-84
2021/04/25 06:08:49;;;;;;;41.92;18.52;;;;;;;7.04;55.45;98823.66;5052558;28;20029;-84
2021/04/25 06:11:15;;;;;;;39.80;16.15;;;;;;;7.03;55.30;98813.84;5053539;28;20029;-84
2021/04/25 06:13:40;;;;;;;37.15;15.23;;;;;;;7.04;55.29;98815.50;5053459;28;20516;-84
2021/04/25 06:16:06;;;;;;;30.20;13.90;;;;;;;7.00;54.75;98811.66;5052021;28;20045;-84
2021/04/25 06:18:32;;;;;;;127.28;34.40;;;;;;;7.01;54.98;98816.00;5053097;28;20024;-84
2021/04/25 06:20:57;;;;;;;109.82;32.05;;;;;;;7.03;54.59;98808.38;5051940;28;20025;-84
2021/04/25 06:23:23;;;;;;;36.15;17.83;;;;;;;7.07;54.77;98804.06;5051247;28;20032;-84
2021/04/25 06:25:49;;;;;;;32.58;15.48;;;;;;;7.08;54.81;98818.50;5053435;28;20222;-84
2021/04/25 06:28:15;;;;;;;30.27;14.25;;;;;;;7.09;54.69;98811.97;5052164;28;20017;-85
2021/04/25 06:30:40;;;;;;;63.95;22.83;;;;;;;7.12;55.04;98804.09;5051970;28;20033;-85
2021/04/25 06:33:06;;;;;;;35.70;16.08;;;;;;;7.19;54.48;98808.44;5039173;28;20040;-85
2021/04/25 06:35:31;;;;;;;32.30;14.93;;;;;;;7.26;54.81;98806.31;5034508;28;20022;-84
2021/04/25 06:37:57;;;;;;;30.05;15.75;;;;;;;7.33;54.43;98808.81;5041691;28;20073;-85
2021/04/25 06:40:22;;;;;;;31.15;14.82;;;;;;;7.39;54.78;98816.75;5047432;28;20021;-85
2021/04/25 06:42:47;;;;;;;29.33;14.98;;;;;;;7.39;54.04;98813.19;5034363;28;20458;-84
2021/04/25 06:45:16;;;;;;;25.88;12.00;;;;;;;7.44;54.11;98815.94;5049642;28;20021;-85
2021/04/25 06:47:42;;;;;;;32.97;13.90;;;;;;;7.49;53.92;98824.16;5045341;28;20056;-84
2021/04/25 06:50:11;;;;;;;35.22;15.40;;;;;;;7.54;53.90;98817.91;5036890;28;20068;-84
2021/04/25 06:52:38;;;;;;;31.75;14.90;;;;;;;7.57;53.72;98825.53;5054319;28;20040;-85
2021/04/25 06:55:04;;;;;;;32.45;15.05;;;;;;;7.57;53.84;98828.25;5052820;28;20024;-85
2021/04/25 06:57:30;;;;;;;28.13;12.73;;;;;;;7.66;52.99;98837.59;5057319;28;20060;-85
2021/04/25 06:59:55;;;;;;;32.47;12.75;;;;;;;7.69;52.51;98828.84;5065405;28;20059;-85
2021/04/25 07:02:21;;;;;;;41.92;16.13;;;;;;;7.74;52.70;98823.41;5050100;28;20044;-85
2021/04/25 07:04:46;;;;;;;42.35;18.10;;;;;;;7.81;52.51;98820.41;5063447;28;20025;-84
2021/04/25 07:07:12;;;;;;;30.73;14.40;;;;;;;7.87;51.96;98826.75;5053057;28;20017;-84
2021/04/25 07:09:38;;;;;;;51.47;18.48;;;;;;;7.91;51.70;98825.13;5051093;28;20021;-85
2021/04/25 07:12:04;;;;;;;26.55;12.02;;;;;;;7.95;51.59;98830.84;5053320;28;20025;-86
2021/04/25 07:14:29;;;;;;;24.33;12.13;;;;;;;7.98;51.27;98833.03;5069501;28;20033;-85
2021/04/25 07:16:54;;;;;;;30.17;13.40;;;;;;;7.94;51.00;98830.03;5071881;28;20052;-85
2021/04/25 07:19:20;;;;;;;46.47;19.23;;;;;;;7.90;51.14;98835.19;5035343;28;20051;-85
2021/04/25 07:21:46;;;;;;;28.63;13.57;;;;;;;7.95;51.44;98833.56;5051461;28;20409;-85
2021/04/25 07:24:11;;;;;;;29.10;12.57;;;;;;;7.99;51.62;98829.22;5066277;28;20032;-85
2021/04/25 07:26:37;;;;;;;24.35;12.00;;;;;;;8.03;51.53;98828.41;5072725;28;20032;-85
2021/04/25 07:29:02;;;;;;;27.17;12.93;;;;;;;8.12;51.33;98833.34;5054638;28;20032;-85
2021/04/25 07:31:28;;;;;;;34.42;14.75;;;;;;;8.12;51.15;98823.25;5053104;28;20033;-84
2021/04/25 07:33:53;;;;;;;25.02;11.98;;;;;;;8.16;51.18;98827.03;5050632;28;20549;-84
2021/04/25 07:36:19;;;;;;;24.45;13.02;;;;;;;8.19;50.91;98821.03;5050455;28;20051;-85
2021/04/25 07:38:44;;;;;;;28.50;11.60;;;;;;;8.23;50.72;98836.88;5049300;28;20146;-86
2021/04/25 07:41:11;;;;;;;26.48;12.65;;;;;;;8.24;50.22;98824.88;5050634;28;20082;-85
2021/04/25 07:43:37;;;;;;;20.77;11.40;;;;;;;8.31;50.09;98829.00;5052567;28;20028;-85
2021/04/25 07:46:02;;;;;;;24.80;12.45;;;;;;;8.37;50.07;98820.78;5035651;28;20029;-84
2021/04/25 07:48:28;;;;;;;20.45;10.82;;;;;;;8.43;50.25;98817.78;5033931;28;20036;-84
2021/04/25 07:50:53;;;;;;;22.13;10.63;;;;;;;8.57;50.19;98815.34;5032808;28;20029;-85
2021/04/25 07:53:19;;;;;;;27.20;11.27;;;;;;;8.68;49.73;98815.34;5042587;28;20060;-83
2021/04/25 07:55:44;;;;;;;21.98;9.30;;;;;;;8.80;49.37;98807.66;5047395;28;20032;-84
2021/04/25 07:58:10;;;;;;;14.48;7.22;;;;;;;8.92;48.44;98815.59;5050248;28;20033;-83
2021/04/25 08:00:36;;;;;;;12.23;6.28;;;;;;;8.96;47.90;98805.75;5053488;28;20120;-83
2021/04/25 08:03:01;;;;;;;14.45;7.07;;;;;;;9.11;46.94;98806.78;5051473;28;20380;-83
2021/04/25 08:05:27;;;;;;;10.75;4.93;;;;;;;9.22;44.84;98800.19;5052255;28;20451;-83
2021/04/25 08:07:52;;;;;;;13.00;6.35;;;;;;;9.22;43.03;98803.72;5051068;28;20021;-83
2021/04/25 08:10:18;;;;;;;19.85;6.72;;;;;;;9.19;43.02;98809.75;5048865;28;20061;-83
2021/04/25 08:12:43;;;;;;;9.73;4.65;;;;;;;9.19;41.75;98812.50;5051903;28;20461;-84
2021/04/25 08:15:10;;;;;;;19.50;7.78;;;;;;;9.16;41.24;98809.50;5052221;28;20520;-84
2021/04/25 08:17:35;;;;;;;7.90;4.10;;;;;;;9.15;40.08;98810.59;5052979;28;20032;-84
2021/04/25 08:20:01;;;;;;;10.57;4.53;;;;;;;9.13;39.93;98807.31;5047899;28;20511;-84
2021/04/25 08:22:26;;;;;;;9.50;5.18;;;;;;;9.09;39.79;98807.88;5052209;28;20025;-84
2021/04/25 08:24:52;;;;;;;8.68;5.38;;;;;;;9.07;39.29;98810.06;5050230;28;20119;-83
2021/04/25 08:27:17;;;;;;;12.57;5.15;;;;;;;9.08;39.19;98808.97;5050188;28;20032;-83
2021/04/25 08:29:43;;;;;;;13.85;6.63;;;;;;;9.12;39.27;98813.91;5050080;28;20036;-82
2021/04/25 08:32:08;;;;;;;18.10;6.95;;;;;;;9.14;39.98;98811.69;5050420;28;20061;-84
2021/04/25 08:34:34;;;;;;;10.80;5.07;;;;;;;9.19;39.08;98814.44;5050163;28;20508;-82
2021/04/25 08:37:00;;;;;;;9.80;4.82;;;;;;;9.20;39.81;98807.84;5048465;28;20107;-83
2021/04/25 08:39:25;;;;;;;7.93;4.20;;;;;;;9.25;39.30;98810.59;5057149;28;20117;-83
2021/04/25 08:41:54;;;;;;;12.70;5.55;;;;;;;9.28;39.89;98814.66;5035583;28;20037;-83
2021/04/25 08:44:20;;;;;;;8.88;4.55;;;;;;;9.34;38.89;98806.19;5059044;28;20103;-82
2021/04/25 08:46:50;;;;;;;10.75;4.65;;;;;;;9.34;39.12;98808.91;5076527;28;20029;-83
2021/04/25 08:49:17;;;;;;;21.45;9.93;;;;;;;9.36;38.44;98801.25;5065003;28;20029;-84
2021/04/25 08:51:43;;;;;;;25.23;12.60;;;;;;;9.37;38.62;98804.78;5055745;28;20044;-83
2021/04/25 08:54:09;;;;;;;19.15;9.27;;;;;;;9.41;39.49;98805.03;5055743;28;20048;-84
2021/04/25 08:56:35;;;;;;;12.23;6.28;;;;;;;9.38;38.51;98812.69;5059407;28;20021;-84
2021/04/25 08:59:01;;;;;;;20.25;7.00;;;;;;;9.29;37.13;98811.66;5060781;28;20040;-83
2021/04/25 09:01:26;;;;;;;19.35;7.03;;;;;;;9.19;37.66;98817.16;5061127;28;20025;-84
2021/04/25 09:03:52;;;;;;;10.23;4.95;;;;;;;9.23;38.43;98813.59;5075770;28;20468;-84
2021/04/25 09:06:17;;;;;;;10.52;5.32;;;;;;;9.30;37.97;98807.00;5073455;28;20020;-84
2021/04/25 09:08:57;;;;;;;15.90;6.40;;;;;;;9.37;38.68;98813.81;5061483;28;20021;-84
2021/04/25 09:11:35;;;;;;;;;;;;;;;9.47;38.15;98812.13;5065456;28;20536;-85
2021/04/25 09:14:23;;;;;;;10.95;4.97;;;;;;;9.56;37.78;98806.91;5066976;28;20295;-87
2021/04/25 09:16:54;;;;;;;10.63;4.80;;;;;;;9.58;37.53;98812.94;5058538;28;20041;-84
2021/04/25 09:19:21;;;;;;;11.20;5.13;;;;;;;9.57;38.29;98805.81;5029892;28;20575;-85
2021/04/25 09:22:07;;;;;;;16.23;6.95;;;;;;;9.58;37.79;98804.72;5030391;28;20160;-85
2021/04/25 09:24:33;;;;;;;12.63;4.95;;;;;;;9.56;36.83;98799.50;5027805;28;20381;-85
2021/04/25 09:26:59;;;;;;;26.00;8.57;;;;;;;9.48;36.20;98802.81;5036052;28;20077;-86
2021/04/25 09:29:30;;;;;;;7.07;3.75;;;;;;;9.34;36.07;98808.06;5035346;28;20025;-85
2021/04/25 09:31:55;;;;;;;14.70;5.30;;;;;;;9.19;36.45;98809.75;5029009;28;20021;-83
2021/04/25 09:34:29;;;;;;;13.95;7.13;;;;;;;9.17;36.82;98817.44;5030042;28;20018;-85
2021/04/25 09:36:56;;;;;;;16.98;7.25;;;;;;;9.10;37.39;98819.66;5034245;28;20059;-86
2021/04/25 09:39:23;;;;;;;15.48;6.80;;;;;;;9.09;38.17;98820.75;5029991;28;20053;-84
2021/04/25 09:41:49;;;;;;;19.67;7.40;;;;;;;9.12;38.55;98814.72;5023380;28;20026;-85
2021/04/25 09:44:35;;;;;;;17.48;6.40;;;;;;;9.06;38.50;98822.13;5021732;28;20029;-83
2021/04/25 09:47:03;;;;;;;14.38;6.65;;;;;;;9.07;39.01;98817.47;5028394;28;20082;-82
2021/04/25 09:49:48;;;;;;;15.10;7.38;;;;;;;9.04;39.21;98818.84;5030211;28;20061;-83
2021/04/25 09:52:37;;;;;;;21.55;8.88;;;;;;;9.00;39.42;98819.69;5031751;28;20041;-84
2021/04/25 09:55:15;;;;;;;18.33;7.72;;;;;;;8.95;39.73;98823.25;5028157;28;20041;-81
2021/04/25 09:57:41;;;;;;;62.03;32.05;;;;;;;8.96;39.96;98816.69;5029493;28;20017;-82
2021/04/25 10:00:10;;;;;;;13.90;6.63;;;;;;;8.99;39.24;98820.78;5043308;28;20657;-81
2021/04/25 10:02:55;;;;;;;21.60;8.85;;;;;;;9.08;39.39;98819.13;5025625;28;20112;-83
2021/04/25 10:05:21;;;;;;;16.70;7.47;;;;;;;9.16;39.59;98818.56;5020805;28;20021;-84
2021/04/25 10:07:47;;;;;;;13.75;5.28;;;;;;;9.29;38.52;98825.34;5032354;28;20026;-84
2021/04/25 10:10:15;;;;;;;39.13;14.27;;;;;;;9.34;38.70;98827.25;5027545;28;20355;-85
2021/04/25 10:12:42;;;;;;;13.95;5.00;;;;;;;9.37;38.57;98815.72;5028588;28;20028;-87
2021/04/25 10:15:11;;;;;;;8.82;4.50;;;;;;;9.42;38.03;98817.63;5028656;28;20080;-85
2021/04/25 10:17:48;;;;;;;15.18;6.45;;;;;;;9.43;37.99;98819.25;5027457;28;20022;-84
2021/04/25 10:20:16;;;;;;;7.35;3.15;;;;;;;9.45;36.69;98817.91;5029293;28;20431;-86
2021/04/25 10:22:43;;;;;;;10.18;4.43;;;;;;;9.44;37.71;98813.53;5024922;28;20119;-85
2021/04/25 10:25:11;;;;;;;7.53;3.00;;;;;;;9.41;36.53;98818.72;5019592;28;20030;-86
2021/04/25 10:27:40;;;;;;;9.82;5.35;;;;;;;9.33;36.99;98810.00;5023052;28;20033;-86
2021/04/25 10:30:07;;;;;;;11.50;4.93;;;;;;;9.37;36.79;98815.72;5026833;28;20029;-86
2021/04/25 10:32:34;;;;;;;10.77;3.85;;;;;;;9.33;36.25;98831.91;5027637;28;20068;-89
2021/04/25 10:35:18;;;;;;;9.82;4.03;;;;;;;9.32;36.40;98824.78;5036432;28;20102;-91
2021/04/25 10:37:44;;;;;;;12.52;4.05;;;;;;;9.29;35.03;98825.34;5034031;28;20021;-91
2021/04/25 10:40:33;;;;;;;12.63;3.83;;;;;;;9.18;34.76;98830.00;5032207;28;20037;-81
2021/04/25 10:43:09;;;;;;;6.70;3.00;;;;;;;9.12;34.41;98831.16;5023274;28;20033;-81
2021/04/25 10:46:01;;;;;;;52.92;24.25;;;;;;;9.08;36.05;98849.22;5020134;28;20017;-79
2021/04/25 10:48:38;;;;;;;37.08;21.27;;;;;;;9.14;35.89;98828.97;5023608;28;20767;-80
2021/04/25 10:51:14;;;;;;;21.60;15.77;;;;;;;9.27;35.38;98834.91;5030896;28;20103;-81
2021/04/25 10:53:46;;;;;;;26.75;14.23;;;;;;;9.37;36.10;98837.63;5025679;28;20198;-81
2021/04/25 10:56:21;;;;;;;13.60;5.28;;;;;;;9.48;35.16;98836.50;5060283;28;20400;-80
2021/04/25 10:59:20;;;;;;;13.40;4.72;;;;;;;9.58;36.47;98830.16;5029803;28;20121;-80
2021/04/25 11:01:49;;;;;;;26.90;13.60;;;;;;;9.75;36.25;98839.97;5027576;28;20056;-83
2021/04/25 11:04:53;;;;;;;22.67;9.75;;;;;;;9.88;34.39;98844.81;5059252;28;20554;-84
2021/04/25 11:07:35;;;;;;;16.38;7.30;;;;;;;9.83;34.00;98833.88;5021933;28;20079;-82
2021/04/25 11:10:01;;;;;;;32.75;9.50;;;;;;;9.94;34.88;98846.41;5036205;28;20036;-82
2021/04/25 11:12:37;;;;;;;15.18;4.40;;;;;;;9.92;33.18;98842.34;5026374;28;20551;-81
2021/04/25 11:15:03;;;;;;;26.38;6.00;;;;;;;9.91;33.59;98848.91;5038734;28;20053;-82
2021/04/25 11:17:30;;;;;;;9.60;3.17;;;;;;;9.88;33.45;98844.00;5032361;28;20036;-82
2021/04/25 11:19:56;;;;;;;28.55;6.90;;;;;;;9.92;34.20;98858.78;5025794;28;20029;-84
2021/04/25 11:22:44;;;;;;;13.65;7.00;;;;;;;9.99;32.90;98845.56;5027145;28;20031;-83
2021/04/25 11:25:29;;;;;;;13.38;5.80;;;;;;;10.09;33.29;98836.47;5025390;28;20034;-86
2021/04/25 11:27:55;;;;;;;26.20;7.70;;;;;;;10.33;32.00;98847.56;5024102;28;20027;-85